Time;durP1;ratioP1;P1;durP2;ratioP2;P2;SDS_P1;SDS_P2;PMS_P1;PMS_P2;Temp;Humidity;BMP_temperature;BMP_pressure;BME280_temperature;BME280_humidity;BME280_pressure;Samples;Min_cycle;Max_cycle;Signal;HPM_P1;HPM_P2
2024/03/17 00:02:20;;;;;;;;;;;;;;;10.57;60.34;99923.53;5070376;28;19920;-80
2024/03/17 00:04:46;;;;;;;;;;;;;;;10.58;60.78;99924.38;5071737;28;19923;-80
2024/03/17 00:07:11;;;;;;;;;;;;;;;10.56;60.13;99924.53;5071419;28;19913;-80
2024/03/17 00:09:37;;;;;;;;;;;;;;;10.54;61.33;99920.41;5071442;28;19994;-80
2024/03/17 00:12:02;;;;;;;;;;;;;;;10.54;61.04;99912.50;5071708;28;19917;-80
2024/03/17 00:14:28;;;;;;;;;;;;;;;10.49;61.32;99919.09;5071500;28;19913;-80
2024/03/17 00:16:53;;;;;;;;;;;;;;;10.48;61.50;99927.19;5070119;28;19916;-80
2024/03/17 00:19:18;;;;;;;;;;;;;;;10.42;61.59;99922.59;5071336;28;19913;-81
2024/03/17 00:21:44;;;;;;;;;;;;;;;10.40;61.35;99928.03;5071589;28;19935;-80
2024/03/17 00:24:09;;;;;;;;;;;;;;;10.40;61.56;99916.63;5071373;28;19920;-80
2024/03/17 00:26:35;;;;;;;;;;;;;;;10.40;61.31;99916.63;5071568;28;20309;-80
2024/03/17 00:29:00;;;;;;;;;;;;;;;10.40;62.10;99913.97;5071556;28;19916;-80
2024/03/17 00:31:25;;;;;;;;;;;;;;;10.36;61.56;99923.22;5071477;28;19922;-80
2024/03/17 00:33:54;;;;;;;;;;;;;;;10.31;62.80;99921.09;5070052;28;19913;-80
2024/03/17 00:36:19;;;;;;;;;;;;;;;10.30;61.77;99922.06;5071399;28;19962;-80
2024/03/17 00:38:44;;;;;;;;;;;;;;;10.26;62.26;99931.31;5069907;28;20373;-80
2024/03/17 00:41:09;;;;;;;;;;;;;;;10.26;62.49;99933.97;5071323;28;19920;-80
2024/03/17 00:43:35;;;;;;;;;;;;;;;10.26;63.01;99933.13;5070975;28;20421;-80
2024/03/17 00:46:00;;;;;;;;;;;;;;;10.28;61.63;99925.88;5071016;28;19912;-80
2024/03/17 00:48:25;;;;;;;;;;;;;;;10.28;62.30;99917.97;5071301;28;20459;-81
2024/03/17 00:50:57;;;;;;;;;;;;;;;10.26;62.24;99915.47;5069958;28;19959;-80
2024/03/17 00:53:22;;;;;;;;;;;;;;;10.25;62.19;99923.56;5071276;28;19919;-80
2024/03/17 00:55:54;;;;;;;;;;;;;;;10.22;61.98;99924.72;5071222;28;19916;-80
2024/03/17 00:58:20;;;;;;;;;;;;;;;10.25;61.93;99921.75;5071012;28;20424;-80
2024/03/17 01:00:47;;;;;;;;;;;;;;;10.24;61.99;99925.38;5071037;28;19913;-80
2024/03/17 01:03:13;;;;;;;;;;;;;;;10.23;62.21;99920.28;5071001;28;19982;-81
2024/03/17 01:05:42;;;;;;;;;;;;;;;10.22;62.59;99914.16;5071046;28;19920;-81
2024/03/17 01:08:07;;;;;;;;;;;;;;;10.21;62.39;99917.81;5071154;28;19913;-80
2024/03/17 01:10:32;;;;;;;;;;;;;;;10.21;62.47;99916.97;5070973;28;19919;-80
2024/03/17 01:12:58;;;;;;;;;;;;;;;10.19;62.02;99922.38;5074022;28;19920;-80
2024/03/17 01:15:23;;;;;;;;;;;;;;;10.13;63.02;99921.25;5074567;28;19917;-80
2024/03/17 01:17:48;;;;;;;;;;;;;;;10.09;61.68;99919.09;5074752;28;19919;-80
2024/03/17 01:20:14;;;;;;;;;;;;;;;10.05;61.87;99915.97;5074625;28;19912;-80
2024/03/17 01:22:39;;;;;;;;;;;;;;;10.05;61.97;99915.16;5074485;28;20309;-80
2024/03/17 01:25:06;;;;;;;;;;;;;;;10.02;62.13;99918.94;5074753;28;19917;-80
2024/03/17 01:27:31;;;;;;;;;;;;;;;9.99;62.10;99927.19;5074451;28;19912;-79
2024/03/17 01:29:56;;;;;;;;;;;;;;;9.99;62.03;99908.72;5074587;28;19922;-80
2024/03/17 01:32:22;;;;;;;;;;;;;;;9.98;61.87;99908.88;5074438;28;19919;-80
2024/03/17 01:34:47;;;;;;;;;;;;;;;9.95;61.88;99910.03;5074378;28;19936;-80
2024/03/17 01:37:12;;;;;;;;;;;;;;;9.95;62.07;99914.47;5074112;28;20006;-80
2024/03/17 01:39:37;;;;;;;;;;;;;;;9.94;62.05;99908.38;5074096;28;19934;-80
2024/03/17 01:42:03;;;;;;;;;;;;;;;9.93;61.60;99911.19;5074152;28;20313;-80
2024/03/17 01:44:29;;;;;;;;;;;;;;;9.93;61.68;99921.75;5074154;28;20007;-80
2024/03/17 01:46:55;;;;;;;;;;;;;;;9.92;62.39;99904.25;5074019;28;20302;-80
2024/03/17 01:49:21;;;;;;;;;;;;;;;9.87;62.14;99912.66;5073956;28;19927;-80
2024/03/17 01:51:47;;;;;;;;;;;;;;;9.86;61.60;99917.13;5072487;28;19912;-80
2024/03/17 01:54:13;;;;;;;;;;;;;;;9.85;61.73;99923.38;5072455;28;20022;-80
2024/03/17 01:56:38;;;;;;;;;;;;;;;9.70;62.82;99924.19;5073694;28;19912;-80
2024/03/17 01:59:04;;;;;;;;;;;;;;;9.53;63.15;99924.13;5073722;28;19995;-80
2024/03/17 02:01:30;;;;;;;;;;;;;;;9.44;62.43;99913.75;5073754;28;19920;-80
2024/03/17 02:03:56;;;;;;;;;;;;;;;9.40;62.56;99921.16;5073316;28;20320;-80
2024/03/17 02:06:23;;;;;;;;;;;;;;;9.40;62.09;99926.41;5072325;28;19912;-80
2024/03/17 02:08:49;;;;;;;;;;;;;;;9.40;62.07;99921.16;5073588;28;19918;-80
2024/03/17 02:11:23;;;;;;;;;;;;;;;9.40;61.91;99920.31;5073396;28;19975;-80
2024/03/17 02:13:48;;;;;;;;;;;;;;;9.38;62.27;99923.13;5073337;28;19915;-80
2024/03/17 02:16:14;;;;;;;;;;;;;;;9.35;62.79;99927.88;5073342;28;19912;-81
2024/03/17 02:18:39;;;;;;;;;;;;;;;9.36;62.33;99924.25;5073209;28;19912;-80
2024/03/17 02:21:05;;;;;;;;;;;;;;;9.34;61.88;99921.78;5073422;28;20049;-81
2024/03/17 02:23:33;;;;;;;;;;;;;;;9.33;61.64;99925.41;5072931;28;19955;-80
2024/03/17 02:25:58;;;;;;;;;;;;;;;9.32;61.91;99931.66;5073296;28;20359;-80
2024/03/17 02:28:23;;;;;;;;;;;;;;;9.29;61.91;99929.34;5073396;28;19923;-80
2024/03/17 02:30:49;;;;;;;;;;;;;;;9.29;62.42;99921.44;5073213;28;19919;-80
2024/03/17 02:33:14;;;;;;;;;;;;;;;9.28;61.95;99927.69;5073313;28;20340;-80
2024/03/17 02:35:40;;;;;;;;;;;;;;;9.29;61.59;99937.25;5073100;28;20431;-80
2024/03/17 02:38:07;;;;;;;;;;;;;;;9.28;61.93;99943.50;5073103;28;20377;-80
2024/03/17 02:40:33;;;;;;;;;;;;;;;9.24;62.49;99936.91;5073161;28;19913;-80
2024/03/17 02:42:59;;;;;;;;;;;;;;;9.21;62.19;99942.50;5072976;28;20003;-80
2024/03/17 02:45:24;;;;;;;;;;;;;;;9.23;62.35;99938.72;5073016;28;20090;-80
2024/03/17 02:47:50;;;;;;;;;;;;;;;9.21;62.21;99929.31;5072655;28;20392;-80
2024/03/17 02:50:15;;;;;;;;;;;;;;;9.19;61.95;99923.41;5072744;28;20446;-80
2024/03/17 02:52:40;;;;;;;;;;;;;;;9.18;62.44;99924.38;5072792;28;20313;-80
2024/03/17 02:55:06;;;;;;;;;;;;;;;9.16;62.76;99928.97;5072561;28;20404;-80
2024/03/17 02:57:32;;;;;;;;;;;;;;;9.16;62.31;99929.81;5072622;28;19999;-80
2024/03/17 02:59:57;;;;;;;;;;;;;;;9.13;62.94;99924.84;5072513;28;20397;-80
2024/03/17 03:02:23;;;;;;;;;;;;;;;9.13;62.16;99916.94;5072267;28;19920;-80
2024/03/17 03:04:48;;;;;;;;;;;;;;;9.13;62.49;99921.41;5072474;28;20417;-81
2024/03/17 03:07:13;;;;;;;;;;;;;;;9.16;62.25;99921.91;5071252;28;19962;-80
2024/03/17 03:09:39;;;;;;;;;;;;;;;9.18;62.22;99927.84;5072427;28;19920;-80
2024/03/17 03:12:04;;;;;;;;;;;;;;;9.14;62.37;99931.78;5072298;28;19969;-81
2024/03/17 03:14:30;;;;;;;;;;;;;;;9.12;62.44;99933.75;5072203;28;19935;-80
2024/03/17 03:16:56;;;;;;;;;;;;;;;9.08;62.16;99942.94;5072329;28;19912;-80
2024/03/17 03:19:21;;;;;;;;;;;;;;;9.03;62.08;99931.25;5072210;28;19923;-80
2024/03/17 03:21:46;;;;;;;;;;;;;;;8.99;62.38;99933.38;5071993;28;20462;-80
2024/03/17 03:24:13;;;;;;;;;;;;;;;8.96;62.30;99935.50;5072238;28;20351;-80
2024/03/17 03:26:39;;;;;;;;;;;;;;;8.95;62.11;99929.41;5072414;28;19916;-80
2024/03/17 03:29:04;;;;;;;;;;;;;;;8.88;62.48;99936.25;5072446;28;19961;-80
2024/03/17 03:31:31;;;;;;;;;;;;;;;8.85;62.33;99934.75;5071150;28;19926;-80
2024/03/17 03:33:56;;;;;;;;;;;;;;;8.84;62.44;99929.66;5071711;28;19916;-80
2024/03/17 03:36:22;;;;;;;;;;;;;;;8.84;61.79;99937.53;5072444;28;20008;-80
2024/03/17 03:38:47;;;;;;;;;;;;;;;8.81;62.30;99929.97;5072243;28;19920;-81
2024/03/17 03:41:16;;;;;;;;;;;;;;;8.79;62.77;99937.19;5071906;28;19916;-80
2024/03/17 03:43:43;;;;;;;;;;;;;;;8.65;62.87;99935.97;5071710;28;20405;-80
2024/03/17 03:46:08;;;;;;;;;;;;;;;8.53;63.47;99935.41;5071685;28;19981;-81
2024/03/17 03:48:36;;;;;;;;;;;;;;;8.59;63.34;99941.84;5071775;28;20003;-80
2024/03/17 03:51:05;;;;;;;;;;;;;;;8.65;62.70;99945.66;5071712;28;20386;-80
2024/03/17 03:53:32;;;;;;;;;;;;;;;8.68;62.81;99954.06;5071871;28;19912;-80
2024/03/17 03:55:57;;;;;;;;;;;;;;;8.68;63.19;99961.97;5071704;28;19912;-80
2024/03/17 03:58:22;;;;;;;;;;;;;;;8.65;63.48;99958.81;5071598;28;19912;-81
2024/03/17 04:00:48;;;;;;;;;;;;;;;8.64;62.91;99954.53;5071562;28;19928;-80
2024/03/17 04:03:13;;;;;;;;;;;;;;;8.64;63.57;99967.72;5070095;28;19921;-81
2024/03/17 04:05:39;;;;;;;;;;;;;;;8.62;63.92;99967.03;5069634;28;21392;-81
2024/03/17 04:08:05;;;;;;;;;;;;;;;8.62;62.93;99962.59;5071690;28;19912;-80
2024/03/17 04:10:30;;;;;;;;;;;;;;;8.64;63.48;99963.28;5071820;28;19916;-80
2024/03/17 04:12:55;;;;;;;;;;;;;;;8.69;62.86;99968.06;5070286;28;20432;-80
2024/03/17 04:15:20;;;;;;;;;;;;;;;8.68;63.17;99967.25;5070477;28;19920;-80
2024/03/17 04:17:46;;;;;;;;;;;;;;;8.70;62.89;99975.81;5071374;28;19947;-81
2024/03/17 04:20:15;;;;;;;;;;;;;;;8.74;63.50;99974.50;5071319;28;19999;-80
2024/03/17 04:22:40;;;;;;;;;;;;;;;8.71;63.22;99976.63;5071485;28;19913;-80
2024/03/17 04:25:06;;;;;;;;;;;;;;;8.70;63.24;99973.19;5070053;28;19974;-81
2024/03/17 04:27:32;;;;;;;;;;;;;;;8.72;63.54;99983.56;5071420;28;19966;-80
2024/03/17 04:29:58;;;;;;;;;;;;;;;8.70;63.82;99986.34;5071360;28;19912;-81
2024/03/17 04:32:24;;;;;;;;;;;;;;;8.70;63.96;99982.88;5071551;28;19913;-81
2024/03/17 04:34:49;;;;;;;;;;;;;;;8.67;64.13;99981.38;5071310;28;19912;-80
2024/03/17 04:37:15;;;;;;;;;;;;;;;8.64;63.96;99988.75;5070140;28;20400;-81
2024/03/17 04:39:42;;;;;;;;;;;;;;;8.64;64.06;99986.97;5071638;28;19918;-80
2024/03/17 04:42:08;;;;;;;;;;;;;;;8.67;65.04;99986.66;5069972;28;19999;-80
2024/03/17 04:44:33;;;;;;;;;;;;;;;8.71;64.09;99982.72;5071231;28;19996;-81
2024/03/17 04:46:58;;;;;;;;;;;;;;;8.75;64.14;99993.78;5073296;28;19952;-80
2024/03/17 04:49:24;;;;;;;;;;;;;;;8.79;64.25;99990.66;5075029;28;19916;-81
2024/03/17 04:51:49;;;;;;;;;;;;;;;8.83;64.73;99991.19;5075017;28;20320;-80
2024/03/17 04:54:14;;;;;;;;;;;;;;;8.83;65.00;99991.19;5074869;28;19999;-81
2024/03/17 04:56:40;;;;;;;;;;;;;;;8.81;64.53;99993.97;5074829;28;19918;-80
2024/03/17 04:59:05;;;;;;;;;;;;;;;8.80;64.69;99986.22;5074863;28;19912;-81
2024/03/17 05:01:35;;;;;;;;;;;;;;;8.83;65.10;99986.75;5074745;28;20298;-80
2024/03/17 05:04:02;;;;;;;;;;;;;;;8.88;65.15;99992.38;5074543;28;19948;-81
2024/03/17 05:06:28;;;;;;;;;;;;;;;8.91;65.77;99989.41;5074768;28;19922;-80
2024/03/17 05:08:53;;;;;;;;;;;;;;;8.97;64.54;99990.63;5074821;28;19999;-81
2024/03/17 05:11:19;;;;;;;;;;;;;;;9.03;63.96;100002.34;5074613;28;19969;-80
2024/03/17 05:13:45;;;;;;;;;;;;;;;9.06;64.47;99994.97;5074615;28;19962;-80
2024/03/17 05:16:10;;;;;;;;;;;;;;;9.10;64.35;100001.56;5074607;28;19912;-81
2024/03/17 05:18:38;;;;;;;;;;;;;;;9.13;64.21;100003.06;5074555;28;19975;-81
2024/03/17 05:21:03;;;;;;;;;;;;;;;9.16;64.02;99998.31;5073297;28;19913;-80
2024/03/17 05:23:30;;;;;;;;;;;;;;;9.21;64.73;99995.19;5074443;28;19916;-81
2024/03/17 05:25:56;;;;;;;;;;;;;;;9.26;63.66;100007.91;5074519;28;19912;-80
2024/03/17 05:28:21;;;;;;;;;;;;;;;9.25;64.30;100004.44;5074146;28;19951;-80
2024/03/17 05:30:48;;;;;;;;;;;;;;;9.29;64.34;100007.56;5074166;28;19955;-81
2024/03/17 05:33:13;;;;;;;;;;;;;;;9.33;63.76;100014.19;5074352;28;19951;-80
2024/03/17 05:35:38;;;;;;;;;;;;;;;9.32;64.40;100009.91;5072841;28;20412;-80
2024/03/17 05:38:04;;;;;;;;;;;;;;;9.31;64.54;100011.69;5072858;28;19955;-80
2024/03/17 05:40:30;;;;;;;;;;;;;;;9.32;63.89;100013.34;5074453;28;19912;-81
2024/03/17 05:42:56;;;;;;;;;;;;;;;9.35;64.24;100010.41;5074615;28;19916;-81
2024/03/17 05:45:21;;;;;;;;;;;;;;;9.33;64.78;100016.81;5073556;28;19920;-80
2024/03/17 05:47:46;;;;;;;;;;;;;;;9.34;65.34;100015.84;5074214;28;19912;-81
2024/03/17 05:50:12;;;;;;;;;;;;;;;9.26;66.84;100024.53;5074110;28;19995;-80
2024/03/17 05:52:37;;;;;;;;;;;;;;;9.26;64.98;100010.53;5074158;28;19913;-81
2024/03/17 05:55:03;;;;;;;;;;;;;;;9.32;65.06;100013.34;5074036;28;20435;-80
2024/03/17 05:57:28;;;;;;;;;;;;;;;9.40;64.12;100018.66;5073094;28;19912;-80
2024/03/17 05:59:55;;;;;;;;;;;;;;;9.46;64.53;100018.03;5072469;28;19924;-80
2024/03/17 06:02:20;;;;;;;;;;;;;;;9.52;65.25;100022.66;5073844;28;19920;-81
2024/03/17 06:04:45;;;;;;;;;;;;;;;9.51;65.03;100026.28;5073789;28;20012;-81
2024/03/17 06:07:11;;;;;;;;;;;;;;;9.56;64.93;100025.78;5073987;28;19920;-80
2024/03/17 06:09:36;;;;;;;;;;;;;;;9.60;64.77;100024.50;5073610;28;19936;-80
2024/03/17 06:12:01;;;;;;;;;;;;;;;9.65;64.91;100024.00;5073659;28;19917;-80
2024/03/17 06:14:27;;;;;;;;;;;;;;;9.64;64.23;100019.72;5073541;28;19955;-81
2024/03/17 06:16:52;;;;;;;;;;;;;;;9.69;64.27;100028.00;5072266;28;19912;-80
2024/03/17 06:19:17;;;;;;;;;;;;;;;9.74;64.55;100033.63;5073634;28;19961;-81
2024/03/17 06:21:42;;;;;;;;;;;;;;;9.81;64.46;100032.81;5072162;28;20014;-80
2024/03/17 06:24:08;;;;;;;;;;;;;;;9.85;63.83;100036.78;5073254;28;19920;-80
2024/03/17 06:26:34;;;;;;;;;;;;;;;9.89;64.18;100034.66;5072019;28;19961;-80
2024/03/17 06:29:02;;;;;;;;;;;;;;;9.88;65.41;100043.56;5073214;28;19955;-81
2024/03/17 06:31:27;;;;;;;;;;;;;;;9.91;64.50;100045.88;5073185;28;19954;-80
2024/03/17 06:33:53;;;;;;;;;;;;;;;9.92;64.56;100050.16;5073393;28;20036;-80
2024/03/17 06:36:18;;;;;;;;;;;;;;;10.01;64.23;100043.91;5073180;28;19913;-81
2024/03/17 06:38:43;;;;;;;;;;;;;;;10.03;65.47;100055.13;5073298;28;19947;-80
2024/03/17 06:41:14;;;;;;;;;;;;;;;10.03;65.61;100052.47;5073146;28;19977;-80
2024/03/17 06:43:41;;;;;;;;;;;;;;;10.03;64.74;100055.13;5072954;28;19920;-80
2024/03/17 06:46:07;;;;;;;;;;;;;;;10.02;64.72;100052.66;5072906;28;19912;-80
2024/03/17 06:48:33;;;;;;;;;;;;;;;10.07;64.09;100056.44;5073075;28;19913;-80
2024/03/17 06:50:58;;;;;;;;;;;;;;;10.14;64.54;100054.81;5072897;28;19913;-80
2024/03/17 06:53:26;;;;;;;;;;;;;;;10.17;65.46;100059.75;5072921;28;19912;-81
2024/03/17 06:55:55;;;;;;;;;;;;;;;10.22;64.44;100054.03;5071306;28;19919;-81
2024/03/17 06:58:22;;;;;;;;;;;;;;;10.26;64.46;100054.53;5072516;28;19905;-80
2024/03/17 07:00:58;;;;;;;;;;;;;;;10.31;63.72;100057.50;5072466;28;19947;-81
2024/03/17 07:03:25;;;;;;;;;;;;;;;10.33;64.67;100066.09;5072534;28;19920;-80
2024/03/17 07:05:51;;;;;;;;;;;;;;;10.36;63.92;100057.84;5072651;28;19919;-80
2024/03/17 07:08:16;;;;;;;;;;;;;;;10.39;63.92;100058.34;5072089;28;19916;-81
2024/03/17 07:10:42;;;;;;;;;;;;;;;10.44;63.74;100060.50;5072228;28;19942;-81
2024/03/17 07:13:07;;;;;;;;;;;;;;;10.51;63.40;100066.78;5072511;28;19919;-81
2024/03/17 07:15:32;;;;;;;;;;;;;;;10.56;63.52;100071.56;5072636;28;19913;-81
2024/03/17 07:17:57;;;;;;;;;;;;;;;10.55;63.18;100067.28;5072802;28;19966;-81
2024/03/17 07:20:23;;;;;;;;;;;;;;;10.58;63.17;100075.69;5072843;28;20402;-81
2024/03/17 07:22:49;;;;;;;;;;;;;;;10.64;63.30;100069.75;5071360;28;20003;-81
2024/03/17 07:25:15;;;;;;;;;;;;;;;10.72;63.29;100069.75;5072159;28;20522;-81
2024/03/17 07:27:40;;;;;;;;;;;;;;;10.82;63.02;100072.22;5070895;28;19918;-81
2024/03/17 07:30:06;;;;;;;;;;;;;;;10.82;64.37;100078.31;5072067;28;20003;-80
2024/03/17 07:32:31;;;;;;;;;;;;;;;10.82;63.37;100067.75;5070867;28;19912;-81
2024/03/17 07:34:57;;;;;;;;;;;;;;;10.89;63.57;100069.72;5071988;28;19912;-80
2024/03/17 07:37:22;;;;;;;;;;;;;;;10.97;62.97;100064.44;5071975;28;19970;-80
2024/03/17 07:39:49;;;;;;;;;;;;;;;11.03;62.31;100059.31;5071937;28;19912;-81
2024/03/17 07:42:14;;;;;;;;;;;;;;;11.10;63.09;100054.16;5070670;28;19912;-80
2024/03/17 07:44:42;;;;;;;;;;;;;;;11.20;63.32;100067.22;5071882;28;19966;-80
2024/03/17 07:47:08;;;;;;;;;;;;;;;11.28;62.62;100075.97;5070423;28;19912;-80
2024/03/17 07:49:33;;;;;;;;;;;;;;;11.34;61.81;100064.69;5071778;28;19919;-82
2024/03/17 07:51:58;;;;;;;;;;;;;;;11.37;62.52;100059.06;5071604;28;20381;-81
2024/03/17 07:54:26;;;;;;;;;;;;;;;11.33;62.63;100064.88;5071585;28;19995;-81
2024/03/17 07:56:52;;;;;;;;;;;;;;;11.38;62.89;100078.41;5071705;28;19919;-80
2024/03/17 07:59:17;;;;;;;;;;;;;;;11.40;62.30;100073.78;5071782;28;19913;-80
2024/03/17 08:01:43;;;;;;;;;;;;;;;11.44;62.90;100064.50;5071526;28;20389;-80
2024/03/17 08:04:08;;;;;;;;;;;;;;;11.49;62.29;100061.34;5070310;28;20013;-80
2024/03/17 08:06:34;;;;;;;;;;;;;;;11.60;62.59;100055.69;5071667;28;20013;-80
2024/03/17 08:08:59;;;;;;;;;;;;;;;11.68;61.16;100055.66;5071726;28;19912;-80
2024/03/17 08:11:24;;;;;;;;;;;;;;;11.72;61.82;100054.31;5071557;28;19913;-80
2024/03/17 08:13:50;;;;;;;;;;;;;;;11.85;62.10;100054.59;5071626;28;19970;-80
2024/03/17 08:16:16;;;;;;;;;;;;;;;11.98;61.74;100054.06;5070147;28;19916;-80
2024/03/17 08:18:42;;;;;;;;;;;;;;;12.06;60.15;100049.53;5071734;28;19912;-80
2024/03/17 08:21:07;;;;;;;;;;;;;;;12.12;60.78;100050.66;5072414;28;19966;-80
2024/03/17 08:23:39;;;;;;;;;;;;;;;12.17;60.22;100037.72;5075557;28;20003;-80
2024/03/17 08:26:04;;;;;;;;;;;;;;;12.19;60.26;100045.47;5075733;28;19913;-80
2024/03/17 08:28:29;;;;;;;;;;;;;;;12.28;60.14;100042.59;5075716;28;19919;-80
2024/03/17 08:30:55;;;;;;;;;;;;;;;12.44;60.10;100048.78;5075609;28;20384;-80
2024/03/17 08:33:22;;;;;;;;;;;;;;;12.50;59.88;100033.00;5075826;28;19969;-80
2024/03/17 08:35:57;;;;;;;;;;;;;;;12.50;59.85;100040.94;5075774;28;19924;-81
2024/03/17 08:38:23;;;;;;;;;;;;;;;12.57;59.35;100033.94;5075559;28;19952;-80
2024/03/17 08:40:49;;;;;;;;;;;;;;;12.63;59.11;100027.09;5075709;28;20424;-80
2024/03/17 08:43:14;;;;;;;;;;;;;;;12.66;59.46;100038.19;5075249;28;19927;-80
2024/03/17 08:45:40;;;;;;;;;;;;;;;12.65;59.35;100019.81;5075194;28;20378;-81
2024/03/17 08:48:05;;;;;;;;;;;;;;;12.68;59.54;100030.06;5075166;28;19916;-80
2024/03/17 08:50:33;;;;;;;;;;;;;;;12.70;59.08;100028.88;5075255;28;19916;-81
2024/03/17 08:52:58;;;;;;;;;;;;;;;12.72;59.17;100026.03;5075096;28;20009;-81
2024/03/17 08:55:24;;;;;;;;;;;;;;;12.77;58.88;100020.19;5075136;28;19963;-80
2024/03/17 08:57:49;;;;;;;;;;;;;;;12.85;59.07;100022.78;5075124;28;20007;-80
2024/03/17 09:00:14;;;;;;;;;;;;;;;12.93;58.88;100026.16;5074954;28;19916;-80
2024/03/17 09:02:41;;;;;;;;;;;;;;;13.07;58.79;100021.88;5073447;28;20425;-80
2024/03/17 09:05:06;;;;;;;;;;;;;;;13.25;58.11;100027.66;5074829;28;19924;-80
2024/03/17 09:07:32;;;;;;;;;;;;;;;13.39;58.05;100022.56;5074878;28;21010;-81
2024/03/17 09:09:58;;;;;;;;;;;;;;;13.51;57.59;100021.91;5074554;28;19991;-80
2024/03/17 09:12:23;;;;;;;;;;;;;;;13.64;57.35;100021.25;5074557;28;20396;-80
2024/03/17 09:14:48;;;;;;;;;;;;;;;13.70;57.10;100017.84;5074459;28;19913;-81
2024/03/17 09:17:14;;;;;;;;;;;;;;;13.84;56.68;100008.19;5074545;28;20313;-80
2024/03/17 09:19:39;;;;;;;;;;;;;;;13.81;56.49;100014.72;5074478;28;20003;-80
2024/03/17 09:22:04;;;;;;;;;;;;;;;14.00;56.23;100011.44;5073128;28;20014;-80
2024/03/17 09:24:30;;;;;;;;;;;;;;;14.20;55.86;100002.88;5072981;28;19917;-80
2024/03/17 09:26:56;;;;;;;;;;;;;;;14.34;55.92;100006.47;5074625;28;19916;-81
2024/03/17 09:29:21;;;;;;;;;;;;;;;14.43;55.32;100003.53;5074493;28;19919;-80
2024/03/17 09:31:46;;;;;;;;;;;;;;;14.50;54.88;100003.56;5073482;28;19912;-80
2024/03/17 09:34:11;;;;;;;;;;;;;;;14.51;54.77;99997.25;5074134;28;19923;-80
2024/03/17 09:36:37;;;;;;;;;;;;;;;14.51;55.09;100000.72;5074179;28;20007;-80
2024/03/17 09:39:04;;;;;;;;;;;;;;;14.55;54.73;99994.00;5072685;28;20301;-80
2024/03/17 09:41:30;;;;;;;;;;;;;;;14.58;55.32;99993.63;5074135;28;19966;-80
2024/03/17 09:43:56;;;;;;;;;;;;;;;14.60;54.46;99998.75;5074208;28;19920;-80
2024/03/17 09:46:25;;;;;;;;;;;;;;;14.77;54.56;99989.47;5074196;28;19920;-80
2024/03/17 09:48:51;;;;;;;;;;;;;;;14.94;54.20;99982.84;5074077;28;19962;-80
2024/03/17 09:51:20;;;;;;;;;;;;;;;15.12;53.69;99982.34;5074014;28;19912;-80
2024/03/17 09:53:46;;;;;;;;;;;;;;;15.28;53.69;99978.53;5072554;28;19946;-79
2024/03/17 09:56:12;;;;;;;;;;;;;;;15.52;52.78;99971.88;5073857;28;19912;-79
2024/03/17 09:58:37;;;;;;;;;;;;;;;15.69;51.89;99983.88;5073710;28;20443;-80
2024/03/17 10:01:03;;;;;;;;;;;;;;;15.84;51.67;99978.38;5073642;28;19952;-80
2024/03/17 10:03:45;;;;;;;;;;;;;;;15.85;50.22;99980.00;5073726;28;20257;-79
2024/03/17 10:06:11;;;;;;;;;;;;;;;15.90;51.38;99980.22;5073838;28;19913;-80
2024/03/17 10:08:44;;;;;;;;;;;;;;;16.01;50.55;99965.50;5072481;28;20363;-79
2024/03/17 10:11:11;;;;;;;;;;;;;;;15.96;51.11;99967.94;5073843;28;19920;-80
2024/03/17 10:13:36;;;;;;;;;;;;;;;16.13;50.13;99969.19;5072519;28;19913;-80
2024/03/17 10:16:01;;;;;;;;;;;;;;;16.34;50.70;99962.84;5072418;28;19935;-80
2024/03/17 10:18:26;;;;;;;;;;;;;;;16.67;50.39;99966.38;5073543;28;19947;-80
2024/03/17 10:20:58;;;;;;;;;;;;;;;16.77;49.54;99964.09;5073600;28;19958;-79
2024/03/17 10:23:24;;;;;;;;;;;;;;;16.83;49.56;99962.44;5073635;28;20000;-80
2024/03/17 10:25:49;;;;;;;;;;;;;;;16.77;48.37;99956.09;5073437;28;19948;-80
2024/03/17 10:28:16;;;;;;;;;;;;;;;16.51;49.79;99958.78;5073401;28;19920;-79
2024/03/17 10:30:42;;;;;;;;;;;;;;;16.41;49.72;99953.84;5072037;28;19974;-79
2024/03/17 10:33:22;;;;;;;;;;;;;;;16.42;50.56;99947.50;5073263;28;19955;-80
2024/03/17 10:35:48;;;;;;;;;;;;;;;16.78;50.46;99947.06;5073153;28;19998;-79
2024/03/17 10:38:13;;;;;;;;;;;;;;;17.02;49.20;99950.09;5072950;28;19913;-80
2024/03/17 10:40:39;;;;;;;;;;;;;;;17.17;49.01;99947.19;5071609;28;19919;-79
2024/03/17 10:43:05;;;;;;;;;;;;;;;17.45;48.05;99943.16;5072866;28;19999;-79
2024/03/17 10:45:35;;;;;;;;;;;;;;;17.75;48.77;99943.44;5071767;28;19912;-79
2024/03/17 10:48:01;;;;;;;;;;;;;;;18.14;46.90;99936.22;5072871;28;20377;-79
2024/03/17 10:50:29;;;;;;;;;;;;;;;18.43;46.54;99940.09;5072954;28;19974;-79
2024/03/17 10:52:55;;;;;;;;;;;;;;;18.66;45.28;99937.66;5072827;28;20397;-79
2024/03/17 10:55:24;;;;;;;;;;;;;;;18.83;45.53;99929.88;5072731;28;19916;-79
2024/03/17 10:57:51;;;;;;;;;;;;;;;19.02;45.95;99925.34;5072774;28;19996;-80
2024/03/17 11:00:21;;;;;;;;;;;;;;;19.13;45.57;99916.56;5072551;28;19916;-79
2024/03/17 11:02:48;;;;;;;;;;;;;;;19.10;41.33;99914.34;5072414;28;19920;-79
2024/03/17 11:05:29;;;;;;;;;;;;;;;19.19;43.59;99917.53;5072488;28;19921;-79
2024/03/17 11:07:59;;;;;;;;;;;;;;;19.36;42.20;99916.72;5072405;28;19920;-79
2024/03/17 11:10:26;;;;;;;;;;;;;;;19.48;44.58;99919.44;5072475;28;20378;-79
2024/03/17 11:12:56;;;;;;;;;;;;;;;19.53;43.59;99910.75;5072374;28;19912;-79
2024/03/17 11:15:31;;;;;;;;;;;;;;;19.61;44.36;99903.22;5072404;28;20393;-79
2024/03/17 11:18:09;;;;;;;;;;;;;;;19.51;44.84;99913.63;5072383;28;20294;-79
2024/03/17 11:20:39;;;;;;;;;;;;;;;19.44;43.10;99912.91;5072300;28;19918;-79
2024/03/17 11:23:04;;;;;;;;;;;;;;;19.61;43.80;99899.72;5070836;28;20336;-79
2024/03/17 11:25:36;;;;;;;;;;;;;;;19.79;42.60;99894.28;5072409;28;19969;-79
2024/03/17 11:28:09;;;;;;;;;;;;;;;19.89;42.94;99888.38;5072021;28;19951;-79
2024/03/17 11:30:41;;;;;;;;;;;;;;;20.04;42.88;99883.38;5071937;28;19919;-80
2024/03/17 11:33:24;;;;;;;;;;;;;;;20.16;41.51;99883.41;5072270;28;20414;-79
2024/03/17 11:35:50;;;;;;;;;;;;;;;20.24;41.35;99878.53;5072097;28;19970;-79
2024/03/17 11:38:44;;;;;;;;;;;;;;;20.39;44.10;99874.56;5072181;28;19920;-80
2024/03/17 11:41:34;;;;;;;;;;;;;;;20.42;42.57;99872.25;5071762;28;20386;-79
2024/03/17 11:44:18;;;;;;;;;;;;;;;20.41;43.43;99869.81;5071584;28;19967;-80
2024/03/17 11:46:44;;;;;;;;;;;;;;;20.32;42.29;99863.94;5071702;28;19912;-80
2024/03/17 11:49:29;;;;;;;;;;;;;;;20.24;42.35;99858.94;5071841;28;19926;-80
2024/03/17 11:51:55;;;;;;;;;;;;;;;20.23;40.29;99860.00;5071849;28;19916;-80
2024/03/17 11:54:27;;;;;;;;;;;;;;;20.21;41.82;99859.41;5071730;28;19908;-80
2024/03/17 11:56:52;;;;;;;;;;;;;;;20.29;41.48;99851.00;5071319;28;19912;-80
2024/03/17 11:59:18;;;;;;;;;;;;;;;20.28;39.81;99847.50;5071766;28;19912;-80
2024/03/17 12:01:49;;;;;;;;;;;;;;;20.24;41.65;99846.34;5071499;28;19959;-79
2024/03/17 12:04:16;;;;;;;;;;;;;;;20.25;39.80;99841.81;5071594;28;19920;-80
2024/03/17 12:06:45;;;;;;;;;;;;;;;20.22;40.57;99839.59;5071925;28;20286;-80
2024/03/17 12:09:21;;;;;;;;;;;;;;;20.11;40.49;99830.50;5071408;28;19963;-80
2024/03/17 12:12:03;;;;;;;;;;;;;;;19.64;42.15;99833.09;5070339;28;19958;-80
2024/03/17 12:14:29;;;;;;;;;;;;;;;19.34;41.98;99826.94;5071450;28;19916;-80
2024/03/17 12:16:56;;;;;;;;;;;;;;;18.88;41.51;99823.00;5071378;28;20429;-80
2024/03/17 12:19:22;;;;;;;;;;;;;;;18.69;44.18;99816.84;5071892;28;19909;-80
2024/03/17 12:21:49;;;;;;;;;;;;;;;18.51;42.45;99821.34;5071574;28;19913;-80
2024/03/17 12:24:16;;;;;;;;;;;;;;;18.38;43.32;99815.09;5071427;28;19923;-79
2024/03/17 12:26:42;;;;;;;;;;;;;;;18.42;42.61;99818.13;5071559;28;20412;-80
2024/03/17 12:29:27;;;;;;;;;;;;;;;18.48;43.56;99809.22;5071355;28;19916;-80
2024/03/17 12:31:52;;;;;;;;;;;;;;;18.53;41.98;99809.38;5071556;28;20274;-79
2024/03/17 12:34:19;;;;;;;;;;;;;;;18.59;42.79;99807.69;5071172;28;19913;-79
2024/03/17 12:36:44;;;;;;;;;;;;;;;18.57;43.40;99805.22;5071075;28;19920;-79
2024/03/17 12:39:17;;;;;;;;;;;;;;;18.62;43.08;99801.94;5071386;28;19913;-79
2024/03/17 12:41:42;;;;;;;;;;;;;;;18.68;42.33;99809.06;5071215;28;19913;-80
2024/03/17 12:44:19;;;;;;;;;;;;;;;18.54;43.57;99802.16;5071227;28;20355;-80
2024/03/17 12:46:45;;;;;;;;;;;;;;;18.63;44.32;99799.03;5069916;28;19913;-81